首页
METAR-TAF:

METAR-TAF

机场 :

石油平台

Goeree Le, 荷兰

纬度: 51-55-33N, 经度: 3-40-12E, 海拔: 19米

当前天气观测

该预报发布于30分钟前的00:55 UTC
风速8节,风向西转西北
温度 13°C
湿度 94%
气压 1006 hPa
能见度10公里或以上

METAR: EHSC 170055Z AUTO 29008KT 9999 ///////// 13/12 Q1006 W15/H7

时间: 03:25 (01:25 UTC)


TAF: 丢失

超过4000个机场的气象观测和天气预报(METAR&TAF报告)。

可查询的气象台以黄色和红色小点在地图上表示。

将鼠标移到小点上方,可查看气象台名称。

然后点击查看天气观测和预报。

如需切换地图:点击带黑十字的绿色按钮放大地图;点击带横线的绿色按钮缩小地图;或者点击绿色箭头查看邻近地区的地图。


METAR-TAF: